createdAt,value
2018-11-28T00:01:47.388Z,18.23
2018-11-28T00:04:17.235Z,18.73
2018-11-28T00:06:46.796Z,17.60
2018-11-28T00:09:17.580Z,17.98
2018-11-28T00:11:47.725Z,17.30
2018-11-28T00:14:18.260Z,16.85
2018-11-28T00:16:47.916Z,18.32
2018-11-28T00:19:18.078Z,17.87
2018-11-28T00:21:47.856Z,15.85
2018-11-28T00:24:17.684Z,19.12
2018-11-28T00:26:47.552Z,17.77
2018-11-28T00:29:17.667Z,19.60
2018-11-28T00:31:47.278Z,20.27
2018-11-28T00:34:17.056Z,19.70
2018-11-28T00:36:46.983Z,18.60
2018-11-28T00:39:16.676Z,18.48
2018-11-28T00:41:46.577Z,17.40
2018-11-28T00:44:16.400Z,16.77
2018-11-28T00:46:46.518Z,17.17
2018-11-28T00:49:16.884Z,18.35
2018-11-28T00:51:46.856Z,17.02
2018-11-28T00:54:17.359Z,17.23
2018-11-28T00:56:47.547Z,17.85
2018-11-28T00:59:18.563Z,17.80
2018-11-28T01:01:48.268Z,18.20
2018-11-28T01:04:18.306Z,17.80
2018-11-28T01:06:48.536Z,17.27
2018-11-28T01:09:18.287Z,17.02
2018-11-28T01:11:49.218Z,17.55
2018-11-28T01:14:19.490Z,18.40
2018-11-28T01:16:50.057Z,17.73
2018-11-28T01:19:20.187Z,17.20
2018-11-28T01:21:50.096Z,17.35
2018-11-28T01:24:20.757Z,17.27
2018-11-28T01:26:50.942Z,17.12
2018-11-28T01:29:21.858Z,18.25
2018-11-28T01:31:51.719Z,18.65
2018-11-28T01:34:22.335Z,16.62
2018-11-28T01:36:52.046Z,17.85
2018-11-28T01:39:22.294Z,17.48
2018-11-28T01:41:52.378Z,16.30
2018-11-28T01:44:22.301Z,16.93
2018-11-28T01:46:52.325Z,16.45
2018-11-28T01:49:22.498Z,16.82
2018-11-28T01:51:52.475Z,15.58
2018-11-28T01:54:22.529Z,16.85
2018-11-28T01:56:52.872Z,16.40
2018-11-28T01:59:22.763Z,15.58
2018-11-28T02:01:52.552Z,16.52
2018-11-28T02:04:22.463Z,17.45
2018-11-28T02:06:52.406Z,16.07
2018-11-28T02:09:22.263Z,17.25
2018-11-28T02:11:53.103Z,16.70
2018-11-28T02:14:23.889Z,15.78
2018-11-28T02:16:53.638Z,16.37
2018-11-28T02:19:25.510Z,17.12
2018-11-28T02:21:55.475Z,15.95
2018-11-28T02:24:25.253Z,17.15
2018-11-28T02:26:55.728Z,15.23
2018-11-28T02:29:25.761Z,16.23
2018-11-28T02:31:55.683Z,13.90
2018-11-28T02:34:26.327Z,15.40
2018-11-28T02:36:58.080Z,13.75
2018-11-28T02:39:28.539Z,14.50
2018-11-28T02:41:58.917Z,14.35
2018-11-28T02:44:29.643Z,13.55
2018-11-28T02:47:00.562Z,13.08
2018-11-28T02:49:31.225Z,13.98
2018-11-28T02:52:01.672Z,14.85
2018-11-28T02:54:32.100Z,15.18
2018-11-28T02:57:02.799Z,17.98
2018-11-28T02:59:32.968Z,16.32
2018-11-28T03:02:04.799Z,17.00
2018-11-28T03:04:35.600Z,16.70
2018-11-28T03:07:06.406Z,17.40
2018-11-28T03:09:37.180Z,16.82
2018-11-28T03:12:06.995Z,16.45
2018-11-28T03:14:37.358Z,17.50
2018-11-28T03:17:08.513Z,15.20
2018-11-28T03:19:38.748Z,16.45
2018-11-28T03:22:08.908Z,16.45
2018-11-28T03:24:38.599Z,16.73
2018-11-28T03:27:08.543Z,15.70
2018-11-28T03:29:39.069Z,16.02
2018-11-28T03:32:08.917Z,15.85
2018-11-28T03:34:38.665Z,16.10
2018-11-28T03:37:11.563Z,16.30
2018-11-28T03:39:42.009Z,15.65
2018-11-28T03:42:11.701Z,15.32
2018-11-28T03:44:41.621Z,15.32
2018-11-28T03:47:11.294Z,16.07
2018-11-28T03:49:41.268Z,15.83
2018-11-28T03:52:11.978Z,16.07
2018-11-28T03:54:41.910Z,14.90
2018-11-28T03:57:12.098Z,15.88
2018-11-28T03:59:42.253Z,16.37
2018-11-28T04:02:12.205Z,15.53
2018-11-28T04:04:42.112Z,16.32
2018-11-28T04:07:12.006Z,16.02
2018-11-28T04:09:41.868Z,16.57
2018-11-28T04:12:11.682Z,16.52
2018-11-28T04:14:41.843Z,16.27
2018-11-28T04:17:11.627Z,15.75
2018-11-28T04:19:41.586Z,16.00
2018-11-28T04:22:12.014Z,16.25
2018-11-28T04:24:41.822Z,16.55
2018-11-28T04:27:13.704Z,16.17
2018-11-28T04:29:43.792Z,17.30
2018-11-28T04:32:13.422Z,16.60
2018-11-28T04:34:43.222Z,16.32
2018-11-28T04:37:13.245Z,16.50
2018-11-28T04:39:42.901Z,16.82
2018-11-28T04:42:12.798Z,15.10
2018-11-28T04:44:42.974Z,15.48
2018-11-28T04:47:14.198Z,15.90
2018-11-28T04:49:43.752Z,17.15
2018-11-28T04:52:13.479Z,15.85
2018-11-28T04:54:43.200Z,15.45
2018-11-28T04:57:13.308Z,15.48
2018-11-28T04:59:42.852Z,16.37
2018-11-28T05:02:12.762Z,15.75
2018-11-28T05:04:42.997Z,15.75
2018-11-28T05:07:28.934Z,15.72
2018-11-28T05:10:00.072Z,15.80
2018-11-28T05:12:40.876Z,14.90
2018-11-28T05:15:15.115Z,16.17
2018-11-28T05:17:46.155Z,15.00
2018-11-28T05:20:19.908Z,16.12
2018-11-28T05:22:50.219Z,15.35
2018-11-28T05:25:21.836Z,15.93
2018-11-28T05:27:52.194Z,14.47
2018-11-28T05:30:30.354Z,15.48
2018-11-28T05:33:00.822Z,15.68
2018-11-28T05:35:40.003Z,13.93
2018-11-28T05:38:14.623Z,15.32
2018-11-28T05:40:45.214Z,15.30
2018-11-28T05:43:14.965Z,16.30
2018-11-28T05:45:45.150Z,14.68
2018-11-28T05:48:15.699Z,15.48
2018-11-28T05:50:45.627Z,16.85
2018-11-28T05:53:15.565Z,14.93
2018-11-28T05:55:45.520Z,16.67
2018-11-28T05:58:15.262Z,15.23
2018-11-28T06:00:45.058Z,16.48
2018-11-28T06:03:14.999Z,16.20
2018-11-28T06:05:45.502Z,17.10
2018-11-28T06:08:17.028Z,16.20
2018-11-28T06:10:47.483Z,17.32
2018-11-28T06:13:17.326Z,17.23
2018-11-28T06:15:47.995Z,16.80
2018-11-28T06:18:17.780Z,16.45
2018-11-28T06:20:47.469Z,17.30
2018-11-28T06:23:17.412Z,15.25
2018-11-28T06:25:47.148Z,17.05
2018-11-28T06:28:18.316Z,17.55
2018-11-28T06:30:49.133Z,16.40
2018-11-28T06:33:18.959Z,15.70
2018-11-28T06:35:48.744Z,16.90
2018-11-28T06:38:19.898Z,17.30
2018-11-28T06:40:50.057Z,16.25
2018-11-28T06:43:19.694Z,16.80
2018-11-28T06:45:49.822Z,16.90
2018-11-28T06:48:19.721Z,16.00
2018-11-28T06:50:49.418Z,16.42
2018-11-28T06:53:19.760Z,16.25
2018-11-28T06:55:49.648Z,16.30
2018-11-28T06:58:20.006Z,16.80
2018-11-28T07:00:51.586Z,16.42
2018-11-28T07:03:22.069Z,17.32
2018-11-28T07:05:52.084Z,17.62
2018-11-28T07:08:23.398Z,17.23
2018-11-28T07:10:53.495Z,19.62
2018-11-28T07:13:23.566Z,23.05
2018-11-28T07:15:53.518Z,20.95
2018-11-28T07:18:35.076Z,20.90
2018-11-28T07:21:05.832Z,20.20
2018-11-28T07:23:36.505Z,21.35
2018-11-28T07:26:06.568Z,19.40
2018-11-28T07:28:39.424Z,20.12
2018-11-28T07:31:09.671Z,21.30
2018-11-28T07:33:40.123Z,24.67
2018-11-28T07:36:10.524Z,18.65
2018-11-28T07:38:40.395Z,19.40
2018-11-28T07:41:11.434Z,17.67
2018-11-28T07:43:41.374Z,18.67
2018-11-28T07:46:11.011Z,17.23
2018-11-28T07:48:41.563Z,18.75
2018-11-28T07:51:11.693Z,17.02
2018-11-28T07:53:42.053Z,17.90
2018-11-28T07:56:13.505Z,18.43
2018-11-28T07:58:43.771Z,17.70
2018-11-28T08:01:13.308Z,17.30
2018-11-28T08:03:44.023Z,17.30
2018-11-28T08:06:13.533Z,19.77
2018-11-28T08:08:44.166Z,20.30
2018-11-28T08:11:14.756Z,19.20
2018-11-28T08:13:44.490Z,18.20
2018-11-28T08:16:15.444Z,17.07
2018-11-28T08:18:45.717Z,17.77
2018-11-28T08:21:15.348Z,17.17
2018-11-28T08:23:45.081Z,17.90
2018-11-28T08:26:16.744Z,17.87
2018-11-28T08:28:46.315Z,17.60
2018-11-28T08:31:16.228Z,19.00
2018-11-28T08:33:46.524Z,17.13
2018-11-28T08:36:16.409Z,19.37
2018-11-28T08:38:46.515Z,19.53
2018-11-28T08:41:17.105Z,18.90
2018-11-28T08:43:47.091Z,19.00
2018-11-28T08:46:16.849Z,19.80
2018-11-28T08:48:47.152Z,16.93
2018-11-28T08:51:16.750Z,17.57
2018-11-28T08:53:46.560Z,18.00
2018-11-28T08:56:16.380Z,17.30
2018-11-28T08:58:46.110Z,17.40
2018-11-28T09:01:15.923Z,15.10
2018-11-28T09:03:45.398Z,15.20
2018-11-28T09:06:15.292Z,17.10
2018-11-28T09:08:45.140Z,15.00
2018-11-28T09:11:15.197Z,12.87
2018-11-28T09:13:45.571Z,12.60
2018-11-28T09:16:17.285Z,11.90
2018-11-28T09:18:48.250Z,13.23
2018-11-28T09:21:17.953Z,14.50
2018-11-28T09:23:48.542Z,13.80
2018-11-28T09:26:19.113Z,13.30
2018-11-28T09:28:49.303Z,13.17
2018-11-28T09:31:19.164Z,12.83
2018-11-28T09:33:48.721Z,12.37
2018-11-28T09:36:19.445Z,12.73
2018-11-28T09:38:49.522Z,12.47
2018-11-28T09:41:20.147Z,12.63
2018-11-28T09:43:50.254Z,12.20
2018-11-28T09:46:21.066Z,10.80
2018-11-28T09:48:52.680Z,11.93
2018-11-28T09:51:22.179Z,11.80
2018-11-28T09:53:53.910Z,11.17
2018-11-28T09:56:23.990Z,11.30
2018-11-28T09:58:54.878Z,12.30
2018-11-28T10:01:25.249Z,11.40
2018-11-28T10:03:55.714Z,11.07
2018-11-28T10:06:25.689Z,12.27
2018-11-28T10:08:57.715Z,12.07
2018-11-28T10:11:29.354Z,10.10
2018-11-28T10:14:02.019Z,11.20
2018-11-28T10:16:32.154Z,11.30
2018-11-28T10:19:02.888Z,10.93
2018-11-28T10:21:33.650Z,11.37
2018-11-28T10:24:04.008Z,12.77
2018-11-28T10:26:33.661Z,11.40
2018-11-28T10:29:03.245Z,11.23
2018-11-28T10:31:33.428Z,11.00
2018-11-28T10:34:03.851Z,16.10
2018-11-28T10:36:33.569Z,12.50
2018-11-28T10:39:05.441Z,8.50
2018-11-28T10:41:35.175Z,9.50
2018-11-28T10:44:05.329Z,7.67
2018-11-28T10:46:35.846Z,8.40
2018-11-28T10:49:05.651Z,8.87
2018-11-28T10:51:35.733Z,9.10
2018-11-28T10:54:07.446Z,8.80
2018-11-28T10:56:37.263Z,9.00
2018-11-28T11:06:22.913Z,8.90
2018-11-28T11:11:01.541Z,7.77
2018-11-28T11:13:36.586Z,7.87
2018-11-28T11:16:08.052Z,9.13
2018-11-28T11:18:38.142Z,7.83
2018-11-28T11:21:08.723Z,7.60
2018-11-28T11:23:39.572Z,8.80
2018-11-28T11:26:09.811Z,8.90
2018-11-28T11:28:39.933Z,8.37
2018-11-28T11:31:10.714Z,8.93
2018-11-28T11:33:40.786Z,8.40
2018-11-28T11:36:10.390Z,9.80
2018-11-28T11:38:41.246Z,8.60
2018-11-28T11:41:11.639Z,9.20
2018-11-28T11:43:41.534Z,9.00
2018-11-28T11:46:12.441Z,8.90
2018-11-28T11:48:42.353Z,9.20
2018-11-28T11:51:12.907Z,9.67
2018-11-28T11:53:43.819Z,9.97
2018-11-28T11:56:14.476Z,9.93
2018-11-28T11:58:44.026Z,8.63
2018-11-28T12:01:17.059Z,9.10
2018-11-28T12:03:48.560Z,9.83
2018-11-28T12:06:19.696Z,10.47
2018-11-28T12:08:50.871Z,8.20
2018-11-28T12:11:20.953Z,9.00
2018-11-28T12:13:52.677Z,9.77
2018-11-28T12:16:22.261Z,9.17
2018-11-28T12:18:52.144Z,9.50
2018-11-28T12:21:22.768Z,10.07
2018-11-28T12:23:52.333Z,10.27
2018-11-28T12:26:23.353Z,8.60
2018-11-28T12:28:53.655Z,9.40
2018-11-28T12:31:25.083Z,8.73
2018-11-28T12:33:55.188Z,8.53
2018-11-28T12:36:26.251Z,9.47
2018-11-28T12:38:56.454Z,8.60
2018-11-28T12:41:26.714Z,8.10
2018-11-28T12:43:56.787Z,8.80
2018-11-28T12:46:26.359Z,8.10
2018-11-28T12:48:56.629Z,7.90
2018-11-28T12:51:26.465Z,8.00
2018-11-28T12:53:56.444Z,8.30
2018-11-28T12:56:26.413Z,8.73
2018-11-28T12:58:56.613Z,8.20
2018-11-28T13:01:26.538Z,8.73
2018-11-28T13:03:56.966Z,8.20
2018-11-28T13:06:29.807Z,7.80
2018-11-28T13:08:59.657Z,8.97
2018-11-28T13:11:30.619Z,9.50
2018-11-28T13:14:04.016Z,8.13
2018-11-28T13:16:34.067Z,8.60
2018-11-28T13:19:04.873Z,7.90
2018-11-28T13:21:35.647Z,7.90
2018-11-28T13:24:06.922Z,9.20
2018-11-28T13:26:39.550Z,9.13
2018-11-28T13:29:13.493Z,8.27
2018-11-28T13:31:46.802Z,9.20
2018-11-28T13:34:22.975Z,9.03
2018-11-28T13:36:55.928Z,9.27
2018-11-28T13:39:27.745Z,8.80
2018-11-28T13:41:58.971Z,9.13
2018-11-28T13:44:34.005Z,9.20
2018-11-28T13:47:06.098Z,8.67
2018-11-28T13:49:37.315Z,9.67
2018-11-28T13:52:11.498Z,8.17
2018-11-28T13:55:37.924Z,9.00
2018-11-28T13:57:19.569Z,8.20
2018-11-28T13:59:49.637Z,8.60
2018-11-28T14:02:22.114Z,8.33
2018-11-28T14:04:54.273Z,8.40
2018-11-28T14:07:27.540Z,8.80
2018-11-28T14:09:59.838Z,9.17
2018-11-28T14:12:32.506Z,9.23
2018-11-28T14:15:07.974Z,9.23
2018-11-28T14:17:44.439Z,10.23
2018-11-28T14:20:19.942Z,9.17
2018-11-28T14:22:52.774Z,8.97
2018-11-28T14:25:24.309Z,10.13
2018-11-28T14:27:57.421Z,9.50
2018-11-28T14:30:30.789Z,9.50
2018-11-28T14:33:04.281Z,9.70
2018-11-28T14:35:36.710Z,10.27
2018-11-28T14:38:10.186Z,10.60
2018-11-28T14:40:42.052Z,10.10
2018-11-28T14:43:14.811Z,10.43
2018-11-28T14:45:48.004Z,9.70
2018-11-28T14:48:20.405Z,10.67
2018-11-28T14:50:57.103Z,10.87
2018-11-28T14:53:33.234Z,9.93
2018-11-28T14:56:06.672Z,11.73
2018-11-28T14:58:41.683Z,10.60
2018-11-28T15:01:13.892Z,11.43
2018-11-28T15:03:47.755Z,12.20
2018-11-28T15:06:33.719Z,11.40
2018-11-28T15:09:10.961Z,11.33
2018-11-28T15:11:46.993Z,11.13
2018-11-28T15:14:19.606Z,11.40
2018-11-28T15:16:55.574Z,11.27
2018-11-28T15:19:27.653Z,11.47
2018-11-28T15:22:00.943Z,11.63
2018-11-28T15:24:33.435Z,11.57
2018-11-28T15:27:07.536Z,12.43
2018-11-28T15:29:38.987Z,12.53
2018-11-28T15:32:09.776Z,12.03
2018-11-28T15:34:44.285Z,11.93
2018-11-28T15:37:14.778Z,11.63
2018-11-28T15:39:45.521Z,13.53
2018-11-28T15:42:15.588Z,12.33
2018-11-28T15:44:46.563Z,12.83
2018-11-28T15:47:17.847Z,12.50
2018-11-28T15:49:47.841Z,11.90
2018-11-28T15:52:17.727Z,11.90
2018-11-28T15:54:48.005Z,11.97
2018-11-28T15:57:20.416Z,11.70
2018-11-28T15:59:51.306Z,11.83
2018-11-28T16:02:22.042Z,11.87
2018-11-28T16:04:51.726Z,11.97
2018-11-28T16:07:21.408Z,11.43
2018-11-28T16:09:57.218Z,11.70
2018-11-28T16:12:27.403Z,11.80
2018-11-28T16:14:58.267Z,12.27
2018-11-28T16:17:28.374Z,12.57
2018-11-28T16:19:59.324Z,12.13
2018-11-28T16:22:31.344Z,11.80
2018-11-28T16:25:02.236Z,10.83
2018-11-28T16:27:31.930Z,11.47
2018-11-28T16:30:02.175Z,11.77
2018-11-28T16:32:31.793Z,11.37
2018-11-28T16:35:02.449Z,11.03
2018-11-28T16:37:32.865Z,12.53
2018-11-28T16:40:02.544Z,13.10
2018-11-28T16:42:32.665Z,11.93
2018-11-28T16:45:03.026Z,13.20
2018-11-28T16:47:33.118Z,12.23
2018-11-28T16:50:02.751Z,13.00
2018-11-28T16:52:32.737Z,12.73
2018-11-28T16:55:02.905Z,12.37
2018-11-28T16:57:33.481Z,12.60
2018-11-28T17:00:03.326Z,13.33
2018-11-28T17:02:32.919Z,12.43
2018-11-28T17:05:09.254Z,13.00
2018-11-28T17:07:39.804Z,13.63
2018-11-28T17:10:12.068Z,13.07
2018-11-28T17:12:41.958Z,12.43
2018-11-28T17:15:15.164Z,11.93
2018-11-28T17:17:45.075Z,13.00
2018-11-28T17:20:18.860Z,11.83
2018-11-28T17:22:50.003Z,13.53
2018-11-28T17:25:24.526Z,13.70
2018-11-28T17:27:55.286Z,11.80
2018-11-28T17:30:27.312Z,12.13
2018-11-28T17:32:59.626Z,12.60
2018-11-28T17:35:30.203Z,13.40
2018-11-28T17:38:00.012Z,12.77
2018-11-28T17:40:30.423Z,13.40
2018-11-28T17:43:01.638Z,13.67
2018-11-28T17:45:31.927Z,13.40
2018-11-28T17:48:01.748Z,13.13
2018-11-28T17:50:31.964Z,12.63
2018-11-28T17:53:05.348Z,13.70
2018-11-28T17:55:37.543Z,13.97
2018-11-28T17:58:08.080Z,13.37
2018-11-28T18:00:38.934Z,13.20
2018-11-28T18:03:08.882Z,13.80
2018-11-28T18:05:39.838Z,12.37
2018-11-28T18:08:09.717Z,13.33
2018-11-28T18:10:41.493Z,13.43
2018-11-28T18:13:15.666Z,14.20
2018-11-28T18:15:52.162Z,14.10
2018-11-28T18:18:25.438Z,13.50
2018-11-28T18:21:00.909Z,12.50
2018-11-28T18:23:34.000Z,13.13
2018-11-28T18:26:07.918Z,12.40
2018-11-28T18:28:42.380Z,12.20
2018-11-28T18:31:15.472Z,13.50
2018-11-28T18:33:47.346Z,12.60
2018-11-28T18:36:19.631Z,13.63
2018-11-28T18:38:50.115Z,13.27
2018-11-28T18:41:23.145Z,12.33
2018-11-28T18:43:53.484Z,12.67
2018-11-28T18:46:24.195Z,12.53
2018-11-28T18:48:54.535Z,12.67
2018-11-28T18:51:26.047Z,11.47
2018-11-28T18:53:56.179Z,12.20
2018-11-28T18:56:26.567Z,12.63
2018-11-28T18:58:59.856Z,12.80
2018-11-28T19:01:30.129Z,11.23
2018-11-28T19:03:59.841Z,11.10
2018-11-28T19:06:29.399Z,11.63
2018-11-28T19:08:59.806Z,10.50
2018-11-28T19:11:29.407Z,11.83
2018-11-28T19:13:58.961Z,10.60
2018-11-28T19:16:28.768Z,13.53
2018-11-28T19:18:59.749Z,12.63
2018-11-28T19:21:29.737Z,12.60
2018-11-28T19:24:00.453Z,11.53
2018-11-28T19:26:32.823Z,12.70
2018-11-28T19:29:04.146Z,12.23
2018-11-28T19:31:34.332Z,11.23
2018-11-28T19:34:04.327Z,11.60
2018-11-28T19:36:34.380Z,12.27
2018-11-28T19:39:06.090Z,13.07
2018-11-28T19:41:37.456Z,12.20
2018-11-28T19:44:10.274Z,11.80
2018-11-28T19:46:40.198Z,12.17
2018-11-28T19:49:14.857Z,11.90
2018-11-28T19:51:44.837Z,11.50
2018-11-28T19:54:15.117Z,12.60
2018-11-28T19:56:45.196Z,12.80
2018-11-28T19:59:17.824Z,12.13
2018-11-28T20:01:49.546Z,13.03
2018-11-28T20:04:21.340Z,12.67
2018-11-28T20:06:50.297Z,10.80
2018-11-28T20:09:20.155Z,11.20
2018-11-28T20:11:49.797Z,10.10
2018-11-28T20:14:20.364Z,11.83
2018-11-28T20:16:50.433Z,10.83
2018-11-28T20:19:20.612Z,11.00
2018-11-28T20:21:50.429Z,10.40
2018-11-28T20:24:20.610Z,12.00
2018-11-28T20:26:52.821Z,10.53
2018-11-28T20:29:23.393Z,10.67
2018-11-28T20:31:53.402Z,10.60
2018-11-28T20:34:23.238Z,10.50
2018-11-28T20:36:53.121Z,9.90
2018-11-28T20:39:24.904Z,10.37
2018-11-28T20:41:55.465Z,11.03
2018-11-28T20:44:25.953Z,10.53
2018-11-28T20:46:55.647Z,10.73
2018-11-28T20:49:28.274Z,10.43
2018-11-28T20:51:58.689Z,11.07
2018-11-28T20:54:30.131Z,11.17
2018-11-28T20:57:01.706Z,10.83
2018-11-28T20:59:38.256Z,11.67
2018-11-28T21:02:04.716Z,10.13
2018-11-28T21:04:34.477Z,11.10
2018-11-28T21:07:04.492Z,10.50
2018-11-28T21:09:42.119Z,10.40
2018-11-28T21:12:15.310Z,11.13
2018-11-28T21:14:45.953Z,10.50
2018-11-28T21:17:15.647Z,10.97
2018-11-28T21:19:45.447Z,10.83
2018-11-28T21:22:15.255Z,10.73
2018-11-28T21:24:44.766Z,10.40
2018-11-28T21:27:14.364Z,10.20
2018-11-28T21:29:44.432Z,10.00
2018-11-28T21:32:14.612Z,10.53
2018-11-28T21:34:44.817Z,9.50
2018-11-28T21:37:15.269Z,10.30
2018-11-28T21:39:53.458Z,10.00
2018-11-28T21:42:23.055Z,9.33
2018-11-28T21:44:54.219Z,10.57
2018-11-28T21:47:25.468Z,10.00
2018-11-28T21:49:55.836Z,10.00
2018-11-28T21:52:25.803Z,11.20
2018-11-28T21:54:55.513Z,9.80
2018-11-28T21:57:25.175Z,9.93
2018-11-28T21:59:54.750Z,10.73
2018-11-28T22:02:24.822Z,9.53
2018-11-28T22:04:55.689Z,11.00
2018-11-28T22:07:25.928Z,9.30
2018-11-28T22:09:56.329Z,10.00
2018-11-28T22:12:26.440Z,9.43
2018-11-28T22:14:56.010Z,9.90
2018-11-28T22:17:25.658Z,9.83
2018-11-28T22:19:55.210Z,10.77
2018-11-28T22:22:24.965Z,10.40
2018-11-28T22:24:55.166Z,10.77
2018-11-28T22:27:24.725Z,11.57
2018-11-28T22:29:54.552Z,11.30
2018-11-28T22:32:24.298Z,11.77
2018-11-28T22:34:54.891Z,12.33
2018-11-28T22:37:24.429Z,12.03
2018-11-28T22:39:54.948Z,11.10
2018-11-28T22:42:24.792Z,11.50
2018-11-28T22:44:54.988Z,11.53
2018-11-28T22:47:25.006Z,11.33
2018-11-28T22:49:54.881Z,12.23
2018-11-28T22:52:24.734Z,11.90
2018-11-28T22:54:54.759Z,11.90
2018-11-28T22:57:24.287Z,10.93
2018-11-28T22:59:54.887Z,11.47
2018-11-28T23:02:45.214Z,12.63
2018-11-28T23:05:16.400Z,12.37
2018-11-28T23:07:46.322Z,11.60
2018-11-28T23:10:16.893Z,12.83
2018-11-28T23:12:47.106Z,12.00
2018-11-28T23:15:18.405Z,12.10
2018-11-28T23:17:48.421Z,12.60
2018-11-28T23:20:18.526Z,11.73
2018-11-28T23:22:48.453Z,12.90
2018-11-28T23:25:19.036Z,11.37
2018-11-28T23:27:48.670Z,12.57
2018-11-28T23:30:20.045Z,11.40
2018-11-28T23:32:50.274Z,11.60
2018-11-28T23:35:21.499Z,12.70
2018-11-28T23:37:51.362Z,12.93
2018-11-28T23:40:24.979Z,12.43
2018-11-28T23:42:55.669Z,12.50
2018-11-28T23:45:26.132Z,11.53
2018-11-28T23:47:56.229Z,11.70
2018-11-28T23:50:27.762Z,11.63
2018-11-28T23:52:57.699Z,11.47
2018-11-28T23:55:29.471Z,11.83
2018-11-28T23:58:00.023Z,11.30
